Terminal Aerodrome Forecast
Issued by NWS

Home | Current Version | Previous Version | Text Only | Print | Product List | Glossary On
Versions: 1 2 3 4 5 6 7 8 9 10 11 12 13 14 15 16 17 18 19 20 21 22 23 24 25 26 27 28 29 30 31 32 33 34 35 36 37 38 39
000
FTAK31 PANC 010804 CCA
TAFADQ
TAF COR
PADQ 010804Z 0108/0206 32006KT P6SM SCT015 SCT025
      TEMPO 0108/0112 BKN015
     FM020000 08012KT P6SM FEW025 BKN200
     FM020500 09012G18KT 6SM -RA SCT015 OVC025=

USA.gov is the U.S. government's official web portal to all federal, state and local government web resources and services.